createdAt,value
2017-09-27T00:00:18.446Z,92.3
2017-09-27T00:05:03.279Z,92.3
2017-09-27T00:10:05.435Z,92.2
2017-09-27T00:15:11.030Z,92.3
2017-09-27T00:20:18.708Z,92.3
2017-09-27T00:25:06.034Z,92.5
2017-09-27T00:30:10.165Z,92.6
2017-09-27T00:35:05.139Z,92.6
2017-09-27T00:40:18.552Z,92.6
2017-09-27T00:45:07.809Z,92.8
2017-09-27T00:50:10.441Z,92.9
2017-09-27T00:55:07.987Z,92.8
2017-09-27T01:00:03.014Z,92.8
2017-09-27T01:05:05.620Z,93
2017-09-27T01:10:02.675Z,93
2017-09-27T01:15:03.196Z,93.1
2017-09-27T01:20:03.322Z,93.1
2017-09-27T01:25:03.404Z,93.1
2017-09-27T01:30:08.572Z,93
2017-09-27T01:35:02.594Z,93
2017-09-27T01:40:05.603Z,93.1
2017-09-27T01:45:07.763Z,93.1
2017-09-27T01:50:05.232Z,93.2
2017-09-27T01:55:15.514Z,93.1
2017-09-27T02:00:07.953Z,93.1
2017-09-27T02:05:03.038Z,93.1
2017-09-27T02:15:05.675Z,93.2
2017-09-27T02:20:08.257Z,93.2
2017-09-27T02:25:03.300Z,93.2
2017-09-27T02:30:05.889Z,93.3
2017-09-27T02:35:08.478Z,93.3
2017-09-27T02:40:13.182Z,93.4
2017-09-27T02:45:02.558Z,93.4
2017-09-27T02:50:05.150Z,93.5
2017-09-27T02:55:07.709Z,93.5
2017-09-27T03:05:07.815Z,93.6
2017-09-27T03:10:33.787Z,93.5
2017-09-27T03:15:15.498Z,93.5
2017-09-27T03:20:05.438Z,93.5
2017-09-27T03:25:03.006Z,93.5
2017-09-27T03:30:08.141Z,93.5
2017-09-27T03:35:02.964Z,93.5
2017-09-27T03:40:05.076Z,93.5
2017-09-27T03:45:03.091Z,93.5
2017-09-27T03:50:03.166Z,93.5
2017-09-27T03:55:15.872Z,93.4
2017-09-27T04:00:10.797Z,93.4
2017-09-27T04:05:03.307Z,93.4
2017-09-27T04:10:15.536Z,90.2
2017-09-27T04:15:08.466Z,93.5
2017-09-27T04:20:03.507Z,93.5
2017-09-27T04:25:10.168Z,93.6
2017-09-27T04:30:05.151Z,93.8
2017-09-27T04:35:02.673Z,93.8
2017-09-27T04:40:03.284Z,93.8
2017-09-27T04:45:05.329Z,94
2017-09-27T04:50:05.422Z,94.1
2017-09-27T04:55:28.249Z,94.2
2017-09-27T05:00:05.484Z,94.3
2017-09-27T05:05:05.589Z,94.3
2017-09-27T05:10:05.215Z,94.3
2017-09-27T05:15:08.260Z,94.3
2017-09-27T05:20:03.186Z,94.3
2017-09-27T05:25:28.565Z,94.6
2017-09-27T05:30:05.945Z,94.7
2017-09-27T05:35:03.384Z,94.7
2017-09-27T05:40:05.563Z,94.7
2017-09-27T05:45:10.158Z,94.7
2017-09-27T05:50:05.173Z,94.6
2017-09-27T05:55:05.304Z,94.6
2017-09-27T06:00:12.928Z,94.5
2017-09-27T06:05:05.424Z,94.5
2017-09-27T06:10:06.054Z,94.5
2017-09-27T06:15:03.041Z,94.5
2017-09-27T06:20:05.698Z,94.4
2017-09-27T06:25:08.359Z,94.2
2017-09-27T06:30:05.877Z,94.4
2017-09-27T06:35:03.352Z,94.4
2017-09-27T06:40:08.150Z,94.3
2017-09-27T06:45:12.182Z,94.3
2017-09-27T06:50:02.640Z,94.3
2017-09-27T06:55:02.721Z,94.3
2017-09-27T07:00:10.525Z,94
2017-09-27T07:05:03.066Z,94
2017-09-27T07:10:02.640Z,94
2017-09-27T07:15:08.235Z,93.9
2017-09-27T07:20:08.304Z,94
2017-09-27T07:25:03.422Z,94
2017-09-27T07:30:06.059Z,94
2017-09-27T07:35:07.703Z,93.9
2017-09-27T07:40:05.829Z,93.8
2017-09-27T07:45:05.379Z,93.7
2017-09-27T07:50:05.479Z,93.6
2017-09-27T07:55:03.056Z,93.6
2017-09-27T08:00:10.733Z,93.3
2017-09-27T08:05:08.345Z,93.4
2017-09-27T08:10:05.507Z,93.4
2017-09-27T08:15:16.123Z,93.4
2017-09-27T08:20:10.182Z,93.2
2017-09-27T08:25:10.352Z,92.8
2017-09-27T08:30:05.302Z,92.8
2017-09-27T08:35:05.525Z,92.6
2017-09-27T08:40:07.669Z,92
2017-09-27T08:45:03.259Z,92
2017-09-27T08:50:03.397Z,92.1
2017-09-27T08:55:22.888Z,92.4
2017-09-27T09:00:05.336Z,92.6
2017-09-27T09:05:02.943Z,92.6
2017-09-27T09:10:02.624Z,92.4
2017-09-27T09:15:08.330Z,92.4
2017-09-27T09:20:05.972Z,92.4
2017-09-27T09:25:02.681Z,92.4
2017-09-27T09:30:05.403Z,92
2017-09-27T09:35:10.594Z,91.6
2017-09-27T09:40:05.186Z,91.8
2017-09-27T09:45:13.512Z,91.7
2017-09-27T09:50:02.686Z,91.8
2017-09-27T09:55:02.769Z,91.8
2017-09-27T10:00:02.967Z,91.5
2017-09-27T10:05:25.883Z,91.5
2017-09-27T10:10:10.342Z,91.2
2017-09-27T10:20:02.527Z,91.2
2017-09-27T10:25:15.433Z,90.9
2017-09-27T10:30:02.964Z,90.9
2017-09-27T10:35:05.776Z,90.9
2017-09-27T10:40:02.909Z,90.8
2017-09-27T10:45:02.690Z,90.5
2017-09-27T10:50:13.031Z,89.9
2017-09-27T10:55:03.121Z,90
2017-09-27T11:00:05.874Z,89.3
2017-09-27T11:05:05.219Z,89.1
2017-09-27T11:10:03.386Z,89.1
2017-09-27T11:15:20.964Z,89.4
2017-09-27T11:20:18.611Z,88.8
2017-09-27T11:25:12.873Z,88.3
2017-09-27T11:30:10.504Z,87.3
2017-09-27T11:35:23.525Z,87.5
2017-09-27T11:40:08.132Z,85.9
2017-09-27T11:45:05.421Z,85.9
2017-09-27T11:50:05.719Z,86.4
2017-09-27T11:55:03.444Z,86.3
2017-09-27T12:00:05.239Z,85.4
2017-09-27T12:05:05.621Z,86.2
2017-09-27T12:10:05.415Z,86.9
2017-09-27T12:15:33.086Z,85.9
2017-09-27T12:20:05.536Z,85.2
2017-09-27T12:25:08.435Z,84.1
2017-09-27T12:30:02.683Z,84.2
2017-09-27T12:35:05.639Z,80.8
2017-09-27T12:40:02.978Z,80.8
2017-09-27T12:45:05.546Z,77.5
2017-09-27T12:50:28.693Z,75.9
2017-09-27T13:00:03.487Z,75.3
2017-09-27T13:05:05.888Z,69.8
2017-09-27T13:10:03.389Z,69.9
2017-09-27T13:15:02.686Z,70.9
2017-09-27T13:20:03.179Z,71.5
2017-09-27T13:25:10.498Z,60.7
2017-09-27T13:30:13.489Z,75
2017-09-27T13:35:13.107Z,74.8
2017-09-27T13:40:05.658Z,74.7
2017-09-27T13:45:23.300Z,75
2017-09-27T13:50:10.959Z,75.3
2017-09-27T13:55:02.967Z,75.3
2017-09-27T14:00:05.968Z,74.7
2017-09-27T14:05:15.554Z,74.4
2017-09-27T14:10:07.814Z,73.1
2017-09-27T14:15:20.525Z,72.1
2017-09-27T14:20:05.709Z,70.8
2017-09-27T14:25:10.358Z,70.3
2017-09-27T14:30:10.796Z,70.3
2017-09-27T14:35:05.340Z,70.4
2017-09-27T14:40:15.358Z,67.5
2017-09-27T14:45:07.956Z,66.6
2017-09-27T14:50:05.903Z,67
2017-09-27T14:55:03.084Z,66.9
2017-09-27T15:00:07.682Z,68.1
2017-09-27T15:05:18.419Z,70.3
2017-09-27T15:10:03.167Z,70.3
2017-09-27T15:15:10.894Z,70.1
2017-09-27T15:20:10.365Z,70.8
2017-09-27T15:25:10.764Z,71.6
2017-09-27T15:30:03.544Z,71.6
2017-09-27T15:35:03.030Z,72.1
2017-09-27T15:40:10.472Z,73.3
2017-09-27T15:45:07.874Z,73.5
2017-09-27T15:50:05.643Z,74.3
2017-09-27T15:55:20.283Z,74.5
2017-09-27T16:00:25.655Z,74.8
2017-09-27T16:05:08.315Z,75.6
2017-09-27T16:10:08.175Z,76.5
2017-09-27T16:15:05.479Z,77
2017-09-27T16:20:10.872Z,77.5
2017-09-27T16:25:02.675Z,77.5
2017-09-27T16:30:07.962Z,79.3
2017-09-27T16:35:03.202Z,79.3
2017-09-27T16:40:08.018Z,79.6
2017-09-27T16:45:20.474Z,80
2017-09-27T16:50:05.653Z,81
2017-09-27T16:55:03.420Z,81
2017-09-27T17:00:15.259Z,83.3
2017-09-27T17:05:05.366Z,83.5
2017-09-27T17:10:05.133Z,84
2017-09-27T17:15:08.421Z,84.7
2017-09-27T17:20:05.106Z,85
2017-09-27T17:25:05.405Z,85.1
2017-09-27T17:30:03.082Z,85.1
2017-09-27T17:35:03.298Z,85.2
2017-09-27T17:40:05.567Z,86.4
2017-09-27T17:45:05.336Z,86.8
2017-09-27T17:50:15.614Z,86.9
2017-09-27T17:55:08.236Z,86.2
2017-09-27T18:00:16.063Z,85.9
2017-09-27T18:05:07.707Z,84.9
2017-09-27T18:15:03.006Z,84.7
2017-09-27T18:20:03.173Z,84.1
2017-09-27T18:25:21.124Z,83.9
2017-09-27T18:30:02.638Z,84
2017-09-27T18:35:05.298Z,83.8
2017-09-27T18:40:11.028Z,83.8
2017-09-27T18:45:08.176Z,84
2017-09-27T18:50:05.726Z,84.3
2017-09-27T18:55:05.905Z,84.4
2017-09-27T19:05:27.999Z,85.3
2017-09-27T19:10:05.944Z,84.7
2017-09-27T19:15:05.554Z,84.7
2017-09-27T19:20:08.303Z,84.6
2017-09-27T19:25:10.924Z,84.7
2017-09-27T19:30:05.109Z,84.8
2017-09-27T19:35:38.147Z,84.4
2017-09-27T19:45:02.999Z,85.3
2017-09-27T19:50:05.733Z,84.8
2017-09-27T19:55:03.247Z,84.8
2017-09-27T20:00:08.437Z,85.1
2017-09-27T20:05:02.545Z,85.1
2017-09-27T20:10:23.369Z,84.7
2017-09-27T20:15:07.852Z,85
2017-09-27T20:20:08.022Z,85.2
2017-09-27T20:25:18.266Z,85.2
2017-09-27T20:30:05.795Z,85.5
2017-09-27T20:35:05.924Z,85.8
2017-09-27T20:40:08.059Z,85.6
2017-09-27T20:45:02.579Z,85.6
2017-09-27T20:50:38.139Z,85.9
2017-09-27T20:55:02.838Z,85.9
2017-09-27T21:00:02.953Z,86
2017-09-27T21:05:03.127Z,86
2017-09-27T21:10:07.783Z,85.9
2017-09-27T21:15:03.349Z,85.9
2017-09-27T21:20:05.949Z,86.4
2017-09-27T21:30:10.328Z,86.3
2017-09-27T21:35:05.426Z,86.2
2017-09-27T21:40:11.113Z,86
2017-09-27T21:45:03.164Z,86
2017-09-27T21:50:38.687Z,86.3
2017-09-27T21:55:03.380Z,86.3
2017-09-27T22:00:02.596Z,86.4
2017-09-27T22:05:10.230Z,86.8
2017-09-27T22:10:13.611Z,86.7
2017-09-27T22:15:02.912Z,86.7
2017-09-27T22:20:05.517Z,87.4
2017-09-27T22:25:20.783Z,87.5
2017-09-27T22:30:05.794Z,87.7
2017-09-27T22:35:05.863Z,87.6
2017-09-27T22:40:02.946Z,87.6
2017-09-27T22:45:18.695Z,87.7
2017-09-27T22:50:02.623Z,87.6
2017-09-27T22:55:02.730Z,87.8
2017-09-27T23:00:02.847Z,87.7
2017-09-27T23:05:05.474Z,88.1
2017-09-27T23:10:06.064Z,88.2
2017-09-27T23:15:03.074Z,88.1
2017-09-27T23:20:08.318Z,88.2
2017-09-27T23:25:05.779Z,88.2
2017-09-27T23:30:03.435Z,88.2
2017-09-27T23:35:08.468Z,88.1
2017-09-27T23:40:10.667Z,88.3
2017-09-27T23:45:05.130Z,88.3
2017-09-27T23:50:10.375Z,88.4
2017-09-27T23:55:05.292Z,88.5
